Independence, OR (97351)

7:16 PM PST on February 27, 2017 (GMT -0800)
Monmouth | | Change Station

Elev 211 ft 44.85 °N, 123.23 °W | Updated 1 minute ago

Overcast
Overcast
38.7 °F
Feels Like 39 °F
N
2.0
Wind Variable Wind from South

Today
High -- | Low -- °F
--% Chance of Precip.
Yesterday
High -- | Low -- °F
Precip. -- in
Pressure 29.84 in
Visibility 10.0 miles
Clouds Scattered Clouds 2900 ft
Mostly Cloudy 4100 ft
Overcast 5000 ft
Windchill 39 °F
Dew Point 37 °F
Humidity 95%
Rainfall 0.04 in
Snow Depth Not available.
6:53 AM 5:58 PM
Waxing Crescent, 3% visible
METAR KSLE 280256Z 23008KT 10SM SCT029 BKN041 OVC050 05/02 A2984 RMK AO2 RAB13E39 SLP105 P0000 60000 T00500017 53006
Pressure 29.84 in
Visibility 10.0 miles
Clouds Scattered Clouds 2900 ft
Mostly Cloudy 4100 ft
Overcast 5000 ft
Windchill 39 °F
Dew Point 37 °F
Humidity 95%
Rainfall 0.04 in
Snow Depth Not available.
6:53 AM 5:58 PM
Waxing Crescent, 3% visible
METAR KSLE 280256Z 23008KT 10SM SCT029 BKN041 OVC050 05/02 A2984 RMK AO2 RAB13E39 SLP105 P0000 60000 T00500017 53006

Get Your Daily Forecast Email!

Thanks for signing up!

Be on the lookout for a verification email in your inbox.

You'll start receiving the daily forecast at 8 AM.

×

10-Day Weather Forecast

Almanac

Astronomy

Feb. 27, 2017 Rise Set
Actual Time
Civil Twilight
Nautical Twilight
Astronomical Twilight
Moon
Length of Visible Light
Length of Day
Tomorrow will be .
, % of the Moon is Illuminated

Today's Extremes

State Highs State Lows

Community

WunderPhotos

Upload Photos

1,962,540 photos uploaded!

WunderBlog® & News

Nearby

Air Quality

  Air Quality AQ Index Pollutant
Not available.

Snow Depth

Station Depth Elevation

Earthquake Activity

City Distance Mag. Time & Date
Minimum magnitude displayed is 2.5.

Coastal Water Temperatures

Place Temperature

Stations

Nearby Weather Stations

Station Location Temp. Windchill Dew Point Humidity Wind Precip. Elev Updated Type
                   

Watches & Warnings

There are currently no watches in effect.